sensor_id;sensor_type;location;lat;lon;timestamp;pressure;altitude;pressure_sealevel;temperature;humidity
71384;BME280;61466;52.166;5.004;2022-11-15T00:00:33;100905.16;;;9.37;69.77
71384;BME280;61466;52.166;5.004;2022-11-15T00:02:58;100902.00;;;9.46;69.62
71384;BME280;61466;52.166;5.004;2022-11-15T00:05:23;100895.00;;;9.39;69.69
71384;BME280;61466;52.166;5.004;2022-11-15T00:07:49;100909.78;;;9.47;69.98
71384;BME280;61466;52.166;5.004;2022-11-15T00:10:15;100914.03;;;9.48;70.06
71384;BME280;61466;52.166;5.004;2022-11-15T00:12:40;100903.09;;;9.45;69.95
71384;BME280;61466;52.166;5.004;2022-11-15T00:15:07;100889.69;;;9.39;70.11
71384;BME280;61466;52.166;5.004;2022-11-15T00:17:32;100857.50;;;9.19;70.26
71384;BME280;61466;52.166;5.004;2022-11-15T00:19:58;100892.88;;;9.36;70.40
71384;BME280;61466;52.166;5.004;2022-11-15T00:22:24;100898.75;;;9.38;70.33
71384;BME280;61466;52.166;5.004;2022-11-15T00:24:49;100897.19;;;9.42;70.30
71384;BME280;61466;52.166;5.004;2022-11-15T00:27:15;100895.56;;;9.41;70.35
71384;BME280;61466;52.166;5.004;2022-11-15T00:29:41;100880.56;;;9.35;70.34
71384;BME280;61466;52.166;5.004;2022-11-15T00:32:11;100886.75;;;9.41;70.60
71384;BME280;61466;52.166;5.004;2022-11-15T00:34:36;100874.50;;;9.40;70.70
71384;BME280;61466;52.166;5.004;2022-11-15T00:37:02;100867.19;;;9.30;70.87
71384;BME280;61466;52.166;5.004;2022-11-15T00:39:27;100886.78;;;9.46;70.65
71384;BME280;61466;52.166;5.004;2022-11-15T00:41:53;100888.41;;;9.47;70.75
71384;BME280;61466;52.166;5.004;2022-11-15T00:44:19;100877.72;;;9.47;70.69
71384;BME280;61466;52.166;5.004;2022-11-15T00:46:45;100881.72;;;9.45;71.15
71384;BME280;61466;52.166;5.004;2022-11-15T00:49:10;100891.09;;;9.47;71.17
71384;BME280;61466;52.166;5.004;2022-11-15T00:51:36;100883.56;;;9.44;71.11
71384;BME280;61466;52.166;5.004;2022-11-15T00:54:02;100865.41;;;9.41;71.42
71384;BME280;61466;52.166;5.004;2022-11-15T00:56:27;100864.13;;;9.49;71.09
71384;BME280;61466;52.166;5.004;2022-11-15T00:58:53;100865.22;;;9.53;71.14
71384;BME280;61466;52.166;5.004;2022-11-15T01:01:19;100852.41;;;9.55;71.06
71384;BME280;61466;52.166;5.004;2022-11-15T01:03:44;100830.38;;;9.37;71.01
71384;BME280;61466;52.166;5.004;2022-11-15T01:06:10;100838.22;;;9.49;71.01
71384;BME280;61466;52.166;5.004;2022-11-15T01:08:41;100849.47;;;9.51;70.93
71384;BME280;61466;52.166;5.004;2022-11-15T01:11:09;100853.72;;;9.52;71.47
71384;BME280;61466;52.166;5.004;2022-11-15T01:13:36;100848.13;;;9.54;71.21
71384;BME280;61466;52.166;5.004;2022-11-15T01:16:13;100813.22;;;9.23;71.67
71384;BME280;61466;52.166;5.004;2022-11-15T01:18:40;100855.84;;;9.50;71.77
71384;BME280;61466;52.166;5.004;2022-11-15T01:21:08;100855.63;;;9.57;71.47
71384;BME280;61466;52.166;5.004;2022-11-15T01:23:35;100855.06;;;9.55;71.62
71384;BME280;61466;52.166;5.004;2022-11-15T01:26:01;100839.31;;;9.53;71.64
71384;BME280;61466;52.166;5.004;2022-11-15T01:28:32;100845.16;;;9.50;71.95
71384;BME280;61466;52.166;5.004;2022-11-15T01:30:59;100837.16;;;9.50;72.14
71384;BME280;61466;52.166;5.004;2022-11-15T01:33:26;100850.34;;;9.62;71.85
71384;BME280;61466;52.166;5.004;2022-11-15T01:35:51;100840.16;;;9.59;71.90
71384;BME280;61466;52.166;5.004;2022-11-15T01:38:17;100838.56;;;9.63;71.61
71384;BME280;61466;52.166;5.004;2022-11-15T01:40:43;100849.31;;;9.68;72.10
71384;BME280;61466;52.166;5.004;2022-11-15T01:43:31;100828.22;;;9.72;72.17
71384;BME280;61466;52.166;5.004;2022-11-15T01:46:34;100844.28;;;9.77;72.17
71384;BME280;61466;52.166;5.004;2022-11-15T01:49:13;100830.31;;;9.64;72.29
71384;BME280;61466;52.166;5.004;2022-11-15T01:51:39;100804.34;;;9.55;71.95
71384;BME280;61466;52.166;5.004;2022-11-15T01:54:09;100838.69;;;9.83;71.91
71384;BME280;61466;52.166;5.004;2022-11-15T01:56:43;100834.94;;;9.79;72.17
71384;BME280;61466;52.166;5.004;2022-11-15T01:59:10;100825.06;;;9.80;72.19
71384;BME280;61466;52.166;5.004;2022-11-15T02:01:36;100826.44;;;9.88;72.11
71384;BME280;61466;52.166;5.004;2022-11-15T02:04:10;100820.56;;;9.86;72.33
71384;BME280;61466;52.166;5.004;2022-11-15T02:06:37;100799.41;;;9.79;72.12
71384;BME280;61466;52.166;5.004;2022-11-15T02:09:03;100809.31;;;9.89;72.02
71384;BME280;61466;52.166;5.004;2022-11-15T02:11:29;100808.00;;;9.91;72.00
71384;BME280;61466;52.166;5.004;2022-11-15T02:13:55;100816.88;;;10.02;72.12
71384;BME280;61466;52.166;5.004;2022-11-15T02:33:38;100771.13;;;9.93;73.71
71384;BME280;61466;52.166;5.004;2022-11-15T02:36:14;100754.31;;;9.88;74.20
71384;BME280;61466;52.166;5.004;2022-11-15T02:42:11;100735.56;;;9.82;73.88
71384;BME280;61466;52.166;5.004;2022-11-15T02:45:01;100749.00;;;10.03;73.89
71384;BME280;61466;52.166;5.004;2022-11-15T02:47:34;100746.88;;;10.05;73.90
71384;BME280;61466;52.166;5.004;2022-11-15T02:50:09;100757.31;;;10.12;74.05
71384;BME280;61466;52.166;5.004;2022-11-15T02:52:36;100742.06;;;10.07;73.96
71384;BME280;61466;52.166;5.004;2022-11-15T02:55:02;100733.78;;;10.14;74.23
71384;BME280;61466;52.166;5.004;2022-11-15T02:57:39;100741.31;;;10.22;74.18
71384;BME280;61466;52.166;5.004;2022-11-15T03:00:15;100735.13;;;10.16;74.93
71384;BME280;61466;52.166;5.004;2022-11-15T03:03:00;100752.31;;;10.31;74.58
71384;BME280;61466;52.166;5.004;2022-11-15T03:08:31;100751.25;;;10.37;74.72
71384;BME280;61466;52.166;5.004;2022-11-15T03:13:53;100755.00;;;10.46;74.90
71384;BME280;61466;52.166;5.004;2022-11-15T03:19:14;100752.34;;;10.51;74.80
71384;BME280;61466;52.166;5.004;2022-11-15T03:21:43;100744.31;;;10.51;74.63
71384;BME280;61466;52.166;5.004;2022-11-15T03:24:12;100754.47;;;10.59;74.63
71384;BME280;61466;52.166;5.004;2022-11-15T03:26:40;100746.19;;;10.61;74.40
71384;BME280;61466;52.166;5.004;2022-11-15T03:29:16;100744.84;;;10.63;75.01
71384;BME280;61466;52.166;5.004;2022-11-15T03:31:46;100730.13;;;10.56;74.64
71384;BME280;61466;52.166;5.004;2022-11-15T03:34:28;100751.03;;;10.69;74.88
71384;BME280;61466;52.166;5.004;2022-11-15T03:36:55;100747.28;;;10.65;74.76
71384;BME280;61466;52.166;5.004;2022-11-15T03:39:22;100753.41;;;10.71;74.94
71384;BME280;61466;52.166;5.004;2022-11-15T03:44:58;100755.56;;;10.74;75.23
71384;BME280;61466;52.166;5.004;2022-11-15T03:47:43;100713.28;;;10.50;74.87
71384;BME280;61466;52.166;5.004;2022-11-15T03:50:16;100750.75;;;10.76;75.07
71384;BME280;61466;52.166;5.004;2022-11-15T03:52:42;100737.38;;;10.76;75.20
71384;BME280;61466;52.166;5.004;2022-11-15T03:55:15;100743.53;;;10.76;75.29
71384;BME280;61466;52.166;5.004;2022-11-15T03:57:41;100754.22;;;10.86;75.16
71384;BME280;61466;52.166;5.004;2022-11-15T04:00:08;100735.50;;;10.81;75.44
71384;BME280;61466;52.166;5.004;2022-11-15T04:02:33;100731.47;;;10.84;75.17
71384;BME280;61466;52.166;5.004;2022-11-15T04:04:59;100743.78;;;10.90;75.36
71384;BME280;61466;52.166;5.004;2022-11-15T04:07:25;100743.25;;;10.93;75.25
71384;BME280;61466;52.166;5.004;2022-11-15T04:09:50;100731.47;;;11.04;74.45
71384;BME280;61466;52.166;5.004;2022-11-15T04:12:35;100740.28;;;11.15;74.18
71384;BME280;61466;52.166;5.004;2022-11-15T04:15:03;100738.41;;;11.16;74.37
71384;BME280;61466;52.166;5.004;2022-11-15T04:17:32;100728.78;;;11.15;74.12
71384;BME280;61466;52.166;5.004;2022-11-15T04:19:57;100729.84;;;11.19;74.04
71384;BME280;61466;52.166;5.004;2022-11-15T04:22:41;100726.09;;;11.04;74.98
71384;BME280;61466;52.166;5.004;2022-11-15T04:25:26;100735.75;;;10.95;74.67
71384;BME280;61466;52.166;5.004;2022-11-15T04:27:52;100720.25;;;10.87;74.92
71384;BME280;61466;52.166;5.004;2022-11-15T04:30:17;100720.78;;;10.89;75.14
71384;BME280;61466;52.166;5.004;2022-11-15T04:32:42;100716.50;;;10.93;75.39
71384;BME280;61466;52.166;5.004;2022-11-15T04:35:08;100709.00;;;10.90;75.28
71384;BME280;61466;52.166;5.004;2022-11-15T04:37:34;100704.16;;;10.92;75.44
71384;BME280;61466;52.166;5.004;2022-11-15T04:39:59;100710.59;;;10.96;75.40
71384;BME280;61466;52.166;5.004;2022-11-15T04:42:26;100707.09;;;11.01;75.56
71384;BME280;61466;52.166;5.004;2022-11-15T04:44:52;100696.69;;;10.94;75.44
71384;BME280;61466;52.166;5.004;2022-11-15T04:47:17;100719.97;;;11.04;75.40
71384;BME280;61466;52.166;5.004;2022-11-15T04:49:44;100713.81;;;11.03;75.47
71384;BME280;61466;52.166;5.004;2022-11-15T04:52:09;100699.91;;;10.91;75.50
71384;BME280;61466;52.166;5.004;2022-11-15T04:54:35;100726.91;;;11.00;75.80
71384;BME280;61466;52.166;5.004;2022-11-15T04:57:01;100728.50;;;11.01;75.71
71384;BME280;61466;52.166;5.004;2022-11-15T04:59:27;100727.47;;;11.02;75.93
71384;BME280;61466;52.166;5.004;2022-11-15T05:01:53;100722.38;;;11.00;75.72
71384;BME280;61466;52.166;5.004;2022-11-15T05:04:19;100706.59;;;10.94;75.87
71384;BME280;61466;52.166;5.004;2022-11-15T05:06:50;100741.88;;;11.11;75.64
71384;BME280;61466;52.166;5.004;2022-11-15T05:09:17;100728.53;;;11.06;75.91
71384;BME280;61466;52.166;5.004;2022-11-15T05:11:43;100736.00;;;11.14;76.00
71384;BME280;61466;52.166;5.004;2022-11-15T05:14:09;100734.13;;;11.15;75.99
71384;BME280;61466;52.166;5.004;2022-11-15T05:16:35;100747.22;;;11.21;76.06
71384;BME280;61466;52.166;5.004;2022-11-15T05:19:02;100731.69;;;11.34;75.39
71384;BME280;61466;52.166;5.004;2022-11-15T05:21:27;100736.75;;;11.40;75.45
71384;BME280;61466;52.166;5.004;2022-11-15T05:23:53;100738.84;;;11.54;75.21
71384;BME280;61466;52.166;5.004;2022-11-15T05:26:19;100739.13;;;11.57;75.18
71384;BME280;61466;52.166;5.004;2022-11-15T05:28:44;100735.38;;;11.53;75.04
71384;BME280;61466;52.166;5.004;2022-11-15T05:31:12;100745.78;;;11.60;75.25
71384;BME280;61466;52.166;5.004;2022-11-15T05:33:39;100742.81;;;11.61;75.22
71384;BME280;61466;52.166;5.004;2022-11-15T05:36:29;100749.81;;;11.62;75.28
71384;BME280;61466;52.166;5.004;2022-11-15T05:38:57;100732.38;;;11.65;74.91
71384;BME280;61466;52.166;5.004;2022-11-15T05:41:32;100738.78;;;11.69;75.12
71384;BME280;61466;52.166;5.004;2022-11-15T05:44:01;100743.88;;;11.65;75.21
71384;BME280;61466;52.166;5.004;2022-11-15T05:46:27;100742.03;;;11.61;74.97
71384;BME280;61466;52.166;5.004;2022-11-15T05:48:54;100735.31;;;11.63;75.10
71384;BME280;61466;52.166;5.004;2022-11-15T05:51:21;100742.78;;;11.72;75.13
71384;BME280;61466;52.166;5.004;2022-11-15T05:53:48;100729.19;;;11.58;75.16
71384;BME280;61466;52.166;5.004;2022-11-15T05:56:14;100758.56;;;11.83;74.70
71384;BME280;61466;52.166;5.004;2022-11-15T05:58:41;100748.94;;;11.77;74.93
71384;BME280;61466;52.166;5.004;2022-11-15T06:01:07;100745.75;;;11.75;75.14
71384;BME280;61466;52.166;5.004;2022-11-15T06:03:33;100749.47;;;11.79;75.07
71384;BME280;61466;52.166;5.004;2022-11-15T06:05:59;100739.28;;;11.76;75.13
71384;BME280;61466;52.166;5.004;2022-11-15T06:08:25;100750.28;;;11.80;75.15
71384;BME280;61466;52.166;5.004;2022-11-15T06:10:50;100740.91;;;11.77;75.16
71384;BME280;61466;52.166;5.004;2022-11-15T06:13:16;100746.25;;;11.77;75.25
71384;BME280;61466;52.166;5.004;2022-11-15T06:15:41;100752.91;;;11.85;75.22
71384;BME280;61466;52.166;5.004;2022-11-15T06:18:07;100742.22;;;11.90;74.69
71384;BME280;61466;52.166;5.004;2022-11-15T06:20:33;100736.84;;;11.85;74.75
71384;BME280;61466;52.166;5.004;2022-11-15T06:23:02;100746.53;;;11.81;75.24
71384;BME280;61466;52.166;5.004;2022-11-15T06:25:28;100738.19;;;11.82;74.74
71384;BME280;61466;52.166;5.004;2022-11-15T06:27:56;100745.19;;;11.78;75.15
71384;BME280;61466;52.166;5.004;2022-11-15T06:30:23;100769.81;;;11.85;75.23
71384;BME280;61466;52.166;5.004;2022-11-15T06:32:48;100768.75;;;11.81;75.14
71384;BME280;61466;52.166;5.004;2022-11-15T06:35:14;100777.31;;;11.94;75.06
71384;BME280;61466;52.166;5.004;2022-11-15T06:37:40;100762.84;;;11.84;74.95
71384;BME280;61466;52.166;5.004;2022-11-15T06:40:07;100765.28;;;11.81;75.16
71384;BME280;61466;52.166;5.004;2022-11-15T06:42:33;100773.03;;;11.87;75.15
71384;BME280;61466;52.166;5.004;2022-11-15T06:44:59;100771.41;;;11.97;74.96
71384;BME280;61466;52.166;5.004;2022-11-15T06:47:24;100767.41;;;11.94;74.91
71384;BME280;61466;52.166;5.004;2022-11-15T06:49:49;100767.41;;;11.94;74.93
71384;BME280;61466;52.166;5.004;2022-11-15T06:52:15;100773.81;;;11.93;74.87
71384;BME280;61466;52.166;5.004;2022-11-15T06:54:43;100797.13;;;11.98;75.18
71384;BME280;61466;52.166;5.004;2022-11-15T06:57:09;100783.50;;;11.94;75.29
71384;BME280;61466;52.166;5.004;2022-11-15T06:59:34;100772.50;;;11.85;75.09
71384;BME280;61466;52.166;5.004;2022-11-15T07:02:00;100748.41;;;11.70;75.26
71384;BME280;61466;52.166;5.004;2022-11-15T07:04:25;100783.19;;;12.01;74.94
71384;BME280;61466;52.166;5.004;2022-11-15T07:06:52;100791.19;;;12.06;74.77
71384;BME280;61466;52.166;5.004;2022-11-15T07:09:17;100786.41;;;12.03;74.62
71384;BME280;61466;52.166;5.004;2022-11-15T07:11:43;100801.44;;;11.99;74.71
71384;BME280;61466;52.166;5.004;2022-11-15T07:14:09;100800.63;;;11.93;74.80
71384;BME280;61466;52.166;5.004;2022-11-15T07:16:36;100795.56;;;11.92;74.67
71384;BME280;61466;52.166;5.004;2022-11-15T07:19:01;100805.75;;;11.90;74.52
71384;BME280;61466;52.166;5.004;2022-11-15T07:21:27;100798.25;;;11.76;74.46
71384;BME280;61466;52.166;5.004;2022-11-15T07:23:53;100789.16;;;11.72;74.53
71384;BME280;61466;52.166;5.004;2022-11-15T07:26:20;100796.16;;;11.68;74.67
71384;BME280;61466;52.166;5.004;2022-11-15T07:28:46;100802.00;;;11.70;74.89
71384;BME280;61466;52.166;5.004;2022-11-15T07:31:12;100791.06;;;11.66;74.97
71384;BME280;61466;52.166;5.004;2022-11-15T07:33:37;100788.91;;;11.68;75.01
71384;BME280;61466;52.166;5.004;2022-11-15T07:36:05;100773.66;;;11.64;74.90
71384;BME280;61466;52.166;5.004;2022-11-15T07:38:33;100766.66;;;11.63;74.83
71384;BME280;61466;52.166;5.004;2022-11-15T07:41:01;100788.88;;;11.74;75.15
71384;BME280;61466;52.166;5.004;2022-11-15T07:43:27;100751.97;;;11.50;75.26
71384;BME280;61466;52.166;5.004;2022-11-15T07:45:53;100785.13;;;11.75;75.52
71384;BME280;61466;52.166;5.004;2022-11-15T07:48:19;100755.44;;;11.56;75.09
71384;BME280;61466;52.166;5.004;2022-11-15T07:50:45;100789.94;;;11.78;75.00
71384;BME280;61466;52.166;5.004;2022-11-15T07:53:11;100781.09;;;11.72;75.34
71384;BME280;61466;52.166;5.004;2022-11-15T07:55:39;100781.59;;;11.84;75.18
71384;BME280;61466;52.166;5.004;2022-11-15T07:58:07;100759.44;;;11.68;75.58
71384;BME280;61466;52.166;5.004;2022-11-15T08:00:34;100793.38;;;11.94;75.57
71384;BME280;61466;52.166;5.004;2022-11-15T08:03:08;100787.50;;;11.97;75.58
71384;BME280;61466;52.166;5.004;2022-11-15T08:05:35;100776.19;;;12.00;75.24
71384;BME280;61466;52.166;5.004;2022-11-15T08:08:01;100782.63;;;12.09;75.14
71384;BME280;61466;52.166;5.004;2022-11-15T08:10:27;100768.38;;;12.08;75.29
71384;BME280;61466;52.166;5.004;2022-11-15T08:12:58;100765.44;;;12.10;75.44
71384;BME280;61466;52.166;5.004;2022-11-15T08:15:26;100773.16;;;12.22;75.14
71384;BME280;61466;52.166;5.004;2022-11-15T08:17:59;100783.84;;;12.27;75.20
71384;BME280;61466;52.166;5.004;2022-11-15T08:20:28;100769.34;;;12.28;74.93
71384;BME280;61466;52.166;5.004;2022-11-15T08:22:59;100776.56;;;12.38;74.60
71384;BME280;61466;52.166;5.004;2022-11-15T08:25:26;100770.63;;;12.41;74.67
71384;BME280;61466;52.166;5.004;2022-11-15T08:27:54;100764.97;;;12.42;74.48
71384;BME280;61466;52.166;5.004;2022-11-15T08:30:20;100760.66;;;12.46;74.55
71384;BME280;61466;52.166;5.004;2022-11-15T08:32:47;100746.78;;;12.34;74.67
71384;BME280;61466;52.166;5.004;2022-11-15T08:35:13;100759.06;;;12.45;74.85
71384;BME280;61466;52.166;5.004;2022-11-15T08:37:39;100710.66;;;12.21;74.39
71384;BME280;61466;52.166;5.004;2022-11-15T08:40:06;100742.97;;;12.45;74.50
71384;BME280;61466;52.166;5.004;2022-11-15T08:42:31;100719.66;;;12.41;74.61
71384;BME280;61466;52.166;5.004;2022-11-15T08:44:57;100727.94;;;12.44;74.67
71384;BME280;61466;52.166;5.004;2022-11-15T08:47:23;100739.34;;;12.60;74.36
71384;BME280;61466;52.166;5.004;2022-11-15T08:49:49;100721.19;;;12.52;74.44
71384;BME280;61466;52.166;5.004;2022-11-15T08:52:15;100744.72;;;12.65;74.33
71384;BME280;61466;52.166;5.004;2022-11-15T08:54:41;100747.84;;;12.73;74.59
71384;BME280;61466;52.166;5.004;2022-11-15T08:57:07;100732.34;;;12.64;74.44
71384;BME280;61466;52.166;5.004;2022-11-15T08:59:34;100748.06;;;12.81;74.33
71384;BME280;61466;52.166;5.004;2022-11-15T09:02:00;100739.97;;;12.86;74.36
71384;BME280;61466;52.166;5.004;2022-11-15T09:04:25;100751.13;;;12.99;74.12
71384;BME280;61466;52.166;5.004;2022-11-15T09:06:51;100739.53;;;13.03;74.04
71384;BME280;61466;52.166;5.004;2022-11-15T09:09:17;100728.56;;;13.00;73.42
71384;BME280;61466;52.166;5.004;2022-11-15T09:11:43;100742.69;;;13.10;73.20
71384;BME280;61466;52.166;5.004;2022-11-15T09:14:14;100740.22;;;13.14;73.31
71384;BME280;61466;52.166;5.004;2022-11-15T09:16:40;100715.44;;;12.98;73.33
71384;BME280;61466;52.166;5.004;2022-11-15T09:19:07;100726.88;;;13.09;72.79
71384;BME280;61466;52.166;5.004;2022-11-15T09:21:33;100725.47;;;13.17;73.02
71384;BME280;61466;52.166;5.004;2022-11-15T09:23:58;100726.50;;;13.21;72.56
71384;BME280;61466;52.166;5.004;2022-11-15T09:26:24;100727.56;;;13.20;72.69
71384;BME280;61466;52.166;5.004;2022-11-15T09:28:50;100724.09;;;13.19;72.22
71384;BME280;61466;52.166;5.004;2022-11-15T09:31:16;100712.53;;;13.19;72.14
71384;BME280;61466;52.166;5.004;2022-11-15T09:33:46;100720.25;;;13.25;72.25
71384;BME280;61466;52.166;5.004;2022-11-15T09:36:12;100709.00;;;13.23;72.07
71384;BME280;61466;52.166;5.004;2022-11-15T09:38:38;100730.63;;;13.37;71.92
71384;BME280;61466;52.166;5.004;2022-11-15T09:49:29;100723.84;;;13.45;71.02
71384;BME280;61466;52.166;5.004;2022-11-15T09:51:55;100715.81;;;13.40;71.02
71384;BME280;61466;52.166;5.004;2022-11-15T09:57:50;100725.94;;;13.48;70.38
71384;BME280;61466;52.166;5.004;2022-11-15T10:00:35;100714.41;;;13.47;70.38
71384;BME280;61466;52.166;5.004;2022-11-15T10:03:16;100719.16;;;13.56;70.49
71384;BME280;61466;52.166;5.004;2022-11-15T10:05:48;100716.91;;;13.63;70.37
71384;BME280;61466;52.166;5.004;2022-11-15T10:11:10;100714.97;;;13.68;70.04
71384;BME280;61466;52.166;5.004;2022-11-15T10:13:41;100711.38;;;13.54;70.14
71384;BME280;61466;52.166;5.004;2022-11-15T10:19:26;100698.03;;;13.44;69.06
71384;BME280;61466;52.166;5.004;2022-11-15T10:22:28;100696.38;;;13.48;69.49
71384;BME280;61466;52.166;5.004;2022-11-15T10:25:24;100699.81;;;13.54;69.56
71384;BME280;61466;52.166;5.004;2022-11-15T10:27:56;100692.84;;;13.52;69.50
71384;BME280;61466;52.166;5.004;2022-11-15T10:30:23;100676.06;;;13.61;69.03
71384;BME280;61466;52.166;5.004;2022-11-15T10:32:49;100666.94;;;13.62;69.08
71384;BME280;61466;52.166;5.004;2022-11-15T10:35:21;100680.22;;;13.72;68.70
71384;BME280;61466;52.166;5.004;2022-11-15T10:37:48;100674.34;;;13.70;68.50
71384;BME280;61466;52.166;5.004;2022-11-15T10:40:21;100660.88;;;13.70;68.23
71384;BME280;61466;52.166;5.004;2022-11-15T10:42:48;100648.03;;;13.67;68.32
71384;BME280;61466;52.166;5.004;2022-11-15T10:45:31;100650.13;;;13.70;68.03
71384;BME280;61466;52.166;5.004;2022-11-15T10:48:22;100650.38;;;13.73;67.60
71384;BME280;61466;52.166;5.004;2022-11-15T10:50:49;100650.66;;;13.72;67.69
71384;BME280;61466;52.166;5.004;2022-11-15T10:53:32;100649.81;;;13.77;67.41
71384;BME280;61466;52.166;5.004;2022-11-15T10:56:06;100646.53;;;13.80;67.42
71384;BME280;61466;52.166;5.004;2022-11-15T10:58:37;100643.03;;;13.79;67.47
71384;BME280;61466;52.166;5.004;2022-11-15T11:01:18;100634.38;;;13.82;67.36
71384;BME280;61466;52.166;5.004;2022-11-15T11:03:57;100622.47;;;13.88;67.38
71384;BME280;61466;52.166;5.004;2022-11-15T11:06:27;100624.41;;;14.02;66.62
71384;BME280;61466;52.166;5.004;2022-11-15T11:09:00;100621.22;;;14.00;66.40
71384;BME280;61466;52.166;5.004;2022-11-15T11:11:51;100620.28;;;13.90;65.77
71384;BME280;61466;52.166;5.004;2022-11-15T11:14:29;100619.94;;;13.78;65.65
71384;BME280;61466;52.166;5.004;2022-11-15T11:25:33;100617.59;;;13.90;65.73
71384;BME280;61466;52.166;5.004;2022-11-15T11:37:04;100607.22;;;13.84;63.65
71384;BME280;61466;52.166;5.004;2022-11-15T11:48:18;100588.25;;;13.94;64.54
71384;BME280;61466;52.166;5.004;2022-11-15T11:50:45;100567.03;;;13.92;64.44
71384;BME280;61466;52.166;5.004;2022-11-15T11:55:53;100546.03;;;13.95;63.97
71384;BME280;61466;52.166;5.004;2022-11-15T11:58:40;100538.75;;;13.95;63.57
71384;BME280;61466;52.166;5.004;2022-11-15T12:01:19;100538.88;;;14.04;63.38
71384;BME280;61466;52.166;5.004;2022-11-15T12:03:59;100558.09;;;14.11;62.65
71384;BME280;61466;52.166;5.004;2022-11-15T12:09:00;100535.78;;;14.10;63.32
71384;BME280;61466;52.166;5.004;2022-11-15T12:11:32;100546.16;;;14.17;63.40
71384;BME280;61466;52.166;5.004;2022-11-15T12:14:07;100513.59;;;14.05;63.08
71384;BME280;61466;52.166;5.004;2022-11-15T12:16:34;100528.28;;;14.26;62.75
71384;BME280;61466;52.166;5.004;2022-11-15T12:19:02;100521.69;;;14.32;62.50
71384;BME280;61466;52.166;5.004;2022-11-15T12:22:00;100516.63;;;14.31;61.68
71384;BME280;61466;52.166;5.004;2022-11-15T12:24:35;100525.38;;;14.37;62.19
71384;BME280;61466;52.166;5.004;2022-11-15T12:27:19;100485.22;;;14.26;61.83
71384;BME280;61466;52.166;5.004;2022-11-15T12:29:53;100493.91;;;14.37;61.38
71384;BME280;61466;52.166;5.004;2022-11-15T12:35:36;100490.19;;;14.19;61.35
71384;BME280;61466;52.166;5.004;2022-11-15T12:38:03;100498.19;;;14.24;62.14
71384;BME280;61466;52.166;5.004;2022-11-15T12:40:37;100490.91;;;14.25;61.76
71384;BME280;61466;52.166;5.004;2022-11-15T12:43:41;100484.72;;;14.24;60.57
71384;BME280;61466;52.166;5.004;2022-11-15T12:46:13;100462.19;;;14.20;60.65
71384;BME280;61466;52.166;5.004;2022-11-15T12:48:47;100478.44;;;14.29;61.29
71384;BME280;61466;52.166;5.004;2022-11-15T12:51:14;100436.88;;;14.21;61.07
71384;BME280;61466;52.166;5.004;2022-11-15T12:53:40;100419.84;;;14.12;60.98
71384;BME280;61466;52.166;5.004;2022-11-15T13:06:51;100447.25;;;14.42;59.65
71384;BME280;61466;52.166;5.004;2022-11-15T13:12:08;100435.72;;;14.41;59.20
71384;BME280;61466;52.166;5.004;2022-11-15T13:17:03;100432.13;;;14.46;58.80
71384;BME280;61466;52.166;5.004;2022-11-15T13:19:35;100411.97;;;14.29;58.80
71384;BME280;61466;52.166;5.004;2022-11-15T13:22:04;100420.44;;;14.37;58.48
71384;BME280;61466;52.166;5.004;2022-11-15T13:24:54;100413.47;;;14.36;58.86
71384;BME280;61466;52.166;5.004;2022-11-15T13:27:20;100423.84;;;14.42;59.05
71384;BME280;61466;52.166;5.004;2022-11-15T13:29:46;100394.25;;;14.28;58.90
71384;BME280;61466;52.166;5.004;2022-11-15T13:32:15;100403.53;;;14.22;59.31
71384;BME280;61466;52.166;5.004;2022-11-15T13:34:46;100385.38;;;14.00;58.84
71384;BME280;61466;52.166;5.004;2022-11-15T13:39:48;100389.28;;;13.94;59.63
71384;BME280;61466;52.166;5.004;2022-11-15T13:42:20;100398.19;;;13.89;58.98
71384;BME280;61466;52.166;5.004;2022-11-15T13:45:03;100390.63;;;13.91;59.49
71384;BME280;61466;52.166;5.004;2022-11-15T13:47:29;100379.91;;;14.05;59.36
71384;BME280;61466;52.166;5.004;2022-11-15T13:49:59;100385.19;;;14.10;59.35
71384;BME280;61466;52.166;5.004;2022-11-15T13:52:30;100367.66;;;13.99;59.25
71384;BME280;61466;52.166;5.004;2022-11-15T13:55:10;100367.88;;;14.03;59.19
71384;BME280;61466;52.166;5.004;2022-11-15T13:57:47;100356.78;;;14.04;58.75
71384;BME280;61466;52.166;5.004;2022-11-15T14:03:06;100369.81;;;14.11;58.92
71384;BME280;61466;52.166;5.004;2022-11-15T14:05:33;100353.41;;;14.12;59.49
71384;BME280;61466;52.166;5.004;2022-11-15T14:08:03;100345.94;;;14.09;59.72
71384;BME280;61466;52.166;5.004;2022-11-15T14:10:35;100347.44;;;14.16;59.70
71384;BME280;61466;52.166;5.004;2022-11-15T14:13:02;100331.59;;;14.14;59.63
71384;BME280;61466;52.166;5.004;2022-11-15T14:15:32;100348.22;;;14.16;59.59
71384;BME280;61466;52.166;5.004;2022-11-15T14:17:58;100329.28;;;14.21;59.46
71384;BME280;61466;52.166;5.004;2022-11-15T14:22:56;100320.94;;;14.09;59.52
71384;BME280;61466;52.166;5.004;2022-11-15T14:25:27;100271.47;;;13.82;59.68
71384;BME280;61466;52.166;5.004;2022-11-15T14:28:13;100319.22;;;14.13;59.66
71384;BME280;61466;52.166;5.004;2022-11-15T14:30:43;100298.72;;;14.03;59.71
71384;BME280;61466;52.166;5.004;2022-11-15T14:35:44;100290.78;;;13.98;59.69
71384;BME280;61466;52.166;5.004;2022-11-15T14:38:10;100295.03;;;13.99;59.82
71384;BME280;61466;52.166;5.004;2022-11-15T14:40:35;100289.28;;;13.92;59.40
71384;BME280;61466;52.166;5.004;2022-11-15T14:43:01;100278.31;;;13.88;59.88
71384;BME280;61466;52.166;5.004;2022-11-15T14:45:27;100266.47;;;13.89;59.64
71384;BME280;61466;52.166;5.004;2022-11-15T14:47:53;100285.09;;;14.00;59.72
71384;BME280;61466;52.166;5.004;2022-11-15T14:50:20;100275.72;;;13.97;59.84
71384;BME280;61466;52.166;5.004;2022-11-15T14:52:47;100277.72;;;13.91;59.84
71384;BME280;61466;52.166;5.004;2022-11-15T14:55:18;100272.56;;;13.81;59.83